Time;durP1;ratioP1;P1;durP2;ratioP2;P2;SDS_P1;SDS_P2;PMS_P1;PMS_P2;Temp;Humidity;BMP_temperature;BMP_pressure;BME280_temperature;BME280_humidity;BME280_pressure;Samples;Min_cycle;Max_cycle;Signal;HPM_P1;HPM_P2
2023/06/13 00:00:06;;;;;;;12.90;5.65;;;;;;;;;;4995711;28;20046;-74
2023/06/13 00:02:33;;;;;;;10.90;5.50;;;;;;;;;;4993681;28;20077;-75
2023/06/13 00:05:01;;;;;;;9.95;5.63;;;;;;;;;;4997805;28;20051;-73
2023/06/13 00:07:32;;;;;;;14.45;5.55;;;;;;;;;;4998505;28;20050;-74
2023/06/13 00:09:59;;;;;;;10.82;5.07;;;;;;;;;;4998898;28;20054;-73
2023/06/13 00:12:25;;;;;;;12.05;5.80;;;;;;;;;;4997626;28;20046;-73
2023/06/13 00:14:51;;;;;;;9.02;5.13;;;;;;;;;;4999211;28;20058;-73
2023/06/13 00:17:18;;;;;;;12.27;5.50;;;;;;;;;;4998137;28;20049;-74
2023/06/13 00:19:48;;;;;;;12.25;5.75;;;;;;;;;;4997913;28;20056;-74
2023/06/13 00:22:14;;;;;;;13.07;5.82;;;;;;;;;;4997816;28;20176;-73
2023/06/13 00:24:44;;;;;;;11.70;5.78;;;;;;;;;;4991995;28;20050;-75
2023/06/13 00:27:10;;;;;;;13.32;6.10;;;;;;;;;;4994655;28;20446;-74
2023/06/13 00:29:36;;;;;;;14.68;5.93;;;;;;;;;;4997489;28;20046;-74
2023/06/13 00:32:02;;;;;;;13.45;5.90;;;;;;;;;;4997324;28;20050;-75
2023/06/13 00:34:28;;;;;;;9.82;5.80;;;;;;;;;;4998587;28;20102;-75
2023/06/13 00:36:55;;;;;;;12.88;6.00;;;;;;;;;;4996104;28;20049;-74
2023/06/13 00:39:21;;;;;;;11.13;6.13;;;;;;;;;;4995427;28;20054;-74
2023/06/13 00:41:47;;;;;;;12.27;6.63;;;;;;;;;;4997787;28;20046;-74
2023/06/13 00:44:14;;;;;;;11.70;5.78;;;;;;;;;;4978037;28;20408;-74
2023/06/13 00:46:41;;;;;;;9.70;5.55;;;;;;;;;;4990540;28;20096;-75
2023/06/13 00:49:08;;;;;;;10.73;6.22;;;;;;;;;;5002942;28;20047;-74
2023/06/13 00:51:35;;;;;;;10.05;6.15;;;;;;;;;;4996118;28;20038;-73
2023/06/13 00:54:02;;;;;;;12.63;6.25;;;;;;;;;;4995740;28;20046;-74
2023/06/13 00:56:29;;;;;;;10.10;6.00;;;;;;;;;;4995179;28;20081;-74
2023/06/13 00:59:00;;;;;;;9.68;6.50;;;;;;;;;;4980722;28;20050;-74
2023/06/13 01:01:27;;;;;;;11.15;6.50;;;;;;;;;;4997295;28;20121;-74
2023/06/13 01:03:55;;;;;;;10.80;6.20;;;;;;;;;;4999906;28;20085;-74
2023/06/13 01:06:24;;;;;;;11.32;6.30;;;;;;;;;;5000166;28;20460;-73
2023/06/13 01:08:50;;;;;;;9.93;6.18;;;;;;;;;;4996632;28;20464;-74
2023/06/13 01:11:19;;;;;;;11.60;5.65;;;;;;;;;;5000999;28;20052;-74
2023/06/13 01:14:05;;;;;;;13.90;6.78;;;;;;;;;;5002324;28;20097;-74
2023/06/13 01:16:40;;;;;;;19.25;6.25;;;;;;;;;;5000950;28;20051;-74
2023/06/13 01:19:14;;;;;;;10.35;6.35;;;;;;;;;;5001738;28;20100;-73
2023/06/13 01:21:41;;;;;;;10.48;6.30;;;;;;;;;;4980111;28;20112;-74
2023/06/13 01:24:14;;;;;;;13.15;6.50;;;;;;;;;;4984136;28;20057;-74
2023/06/13 01:26:43;;;;;;;11.50;6.43;;;;;;;;;;5001198;28;20080;-74
2023/06/13 01:29:10;;;;;;;12.98;6.72;;;;;;;;;;5001769;28;20112;-74
2023/06/13 01:31:37;;;;;;;10.48;6.13;;;;;;;;;;5001628;28;20042;-74
2023/06/13 01:34:03;;;;;;;14.45;6.15;;;;;;;;;;5000513;28;20089;-74
2023/06/13 01:36:29;;;;;;;9.93;5.82;;;;;;;;;;5000932;28;20046;-72
2023/06/13 01:38:56;;;;;;;12.43;6.22;;;;;;;;;;5000592;28;20468;-73
2023/06/13 01:41:22;;;;;;;10.45;6.20;;;;;;;;;;4995125;28;20076;-73
2023/06/13 01:43:48;;;;;;;14.02;6.10;;;;;;;;;;4991047;28;20433;-73
2023/06/13 01:46:17;;;;;;;10.43;5.72;;;;;;;;;;4994768;28;20045;-73
2023/06/13 01:49:09;;;;;;;13.60;6.88;;;;;;;;;;4984567;28;20060;-74
2023/06/13 01:51:45;;;;;;;11.60;6.00;;;;;;;;;;4997823;28;20053;-73
2023/06/13 01:54:13;;;;;;;11.15;6.78;;;;;;;;;;4998350;28;20046;-74
2023/06/13 01:56:41;;;;;;;11.93;6.63;;;;;;;;;;4996206;28;20125;-74
2023/06/13 01:59:07;;;;;;;13.10;6.68;;;;;;;;;;4998376;28;20042;-74
2023/06/13 02:01:35;;;;;;;13.77;6.38;;;;;;;;;;4998273;28;20074;-73
2023/06/13 02:04:02;;;;;;;11.63;6.90;;;;;;;;;;4999070;28;20047;-74
2023/06/13 02:06:29;;;;;;;10.35;6.43;;;;;;;;;;4999310;28;20050;-73
2023/06/13 02:08:56;;;;;;;10.75;6.70;;;;;;;;;;4982998;28;20050;-73
2023/06/13 02:11:22;;;;;;;12.95;7.03;;;;;;;;;;4997894;28;20085;-73
2023/06/13 02:13:48;;;;;;;13.60;7.38;;;;;;;;;;5001300;28;20049;-74
2023/06/13 02:16:14;;;;;;;11.07;6.28;;;;;;;;;;5001112;28;20403;-74
2023/06/13 02:18:41;;;;;;;11.70;6.43;;;;;;;;;;5000016;28;20047;-74
2023/06/13 02:21:08;;;;;;;10.98;6.55;;;;;;;;;;4993333;28;20058;-75
2023/06/13 02:23:34;;;;;;;11.57;6.63;;;;;;;;;;4998759;28;20118;-74
2023/06/13 02:26:00;;;;;;;9.73;6.38;;;;;;;;;;4999499;28;20050;-74
2023/06/13 02:28:26;;;;;;;13.75;6.40;;;;;;;;;;5000853;28;20042;-75
2023/06/13 02:30:52;;;;;;;11.55;5.82;;;;;;;;;;5002523;28;20046;-73
2023/06/13 02:33:18;;;;;;;10.40;5.93;;;;;;;;;;5001191;28;20078;-74
2023/06/13 02:35:45;;;;;;;11.82;6.10;;;;;;;;;;5001241;28;20077;-73
2023/06/13 02:38:11;;;;;;;10.65;6.00;;;;;;;;;;5003187;28;20046;-74
2023/06/13 02:40:38;;;;;;;12.20;6.18;;;;;;;;;;5001390;28;20049;-73
2023/06/13 02:43:04;;;;;;;10.80;5.97;;;;;;;;;;4997967;28;20623;-73
2023/06/13 02:45:30;;;;;;;11.43;6.32;;;;;;;;;;4998542;28;20077;-73
2023/06/13 02:47:56;;;;;;;15.18;6.97;;;;;;;;;;4985624;28;20488;-73
2023/06/13 02:50:23;;;;;;;10.68;6.22;;;;;;;;;;4990464;28;20492;-74
2023/06/13 02:52:49;;;;;;;12.32;6.20;;;;;;;;;;4995739;28;20050;-73
2023/06/13 02:55:15;;;;;;;10.63;6.40;;;;;;;;;;4996733;28;20066;-74
2023/06/13 02:57:41;;;;;;;11.93;6.22;;;;;;;;;;4998065;28;20050;-73
2023/06/13 03:00:09;;;;;;;10.00;5.75;;;;;;;;;;4982317;28;20043;-74
2023/06/13 03:02:38;;;;;;;12.95;6.00;;;;;;;;;;4996183;28;20045;-75
2023/06/13 03:05:09;;;;;;;10.93;5.68;;;;;;;;;;4999407;28;20101;-73
2023/06/13 03:07:35;;;;;;;9.25;5.50;;;;;;;;;;4999405;28;20093;-74
2023/06/13 03:10:02;;;;;;;9.77;6.30;;;;;;;;;;4998950;28;20050;-73
2023/06/13 03:12:28;;;;;;;8.93;5.57;;;;;;;;;;4999345;28;20101;-73
2023/06/13 03:14:55;;;;;;;8.65;5.50;;;;;;;;;;4999685;28;20057;-75
2023/06/13 03:17:21;;;;;;;9.52;5.30;;;;;;;;;;4999950;28;20161;-73
2023/06/13 03:19:47;;;;;;;10.43;5.53;;;;;;;;;;4999762;28;20073;-74
2023/06/13 03:22:14;;;;;;;9.07;5.20;;;;;;;;;;4997936;28;20054;-73
2023/06/13 03:24:47;;;;;;;9.00;5.10;;;;;;;;;;4999428;28;20484;-74
2023/06/13 03:27:13;;;;;;;11.75;5.00;;;;;;;;;;4995725;28;20045;-73
2023/06/13 03:29:40;;;;;;;12.10;5.20;;;;;;;;;;4999426;28;20050;-73
2023/06/13 03:32:07;;;;;;;10.85;5.35;;;;;;;;;;4998221;28;20077;-73
2023/06/13 03:34:37;;;;;;;10.57;5.22;;;;;;;;;;4996525;28;20496;-74
2023/06/13 03:37:05;;;;;;;13.43;4.80;;;;;;;;;;4998716;28;20163;-74
2023/06/13 03:39:31;;;;;;;11.40;5.28;;;;;;;;;;4999553;28;20055;-74
2023/06/13 03:41:57;;;;;;;11.18;5.18;;;;;;;;;;4998913;28;20097;-74
2023/06/13 03:44:23;;;;;;;7.55;4.70;;;;;;;;;;4998291;28;20053;-73
2023/06/13 03:46:50;;;;;;;10.32;4.55;;;;;;;;;;4998553;28;20042;-74
2023/06/13 03:49:16;;;;;;;10.23;5.20;;;;;;;;;;4999319;28;20058;-73
2023/06/13 03:51:42;;;;;;;12.07;5.18;;;;;;;;;;4998274;28;20042;-73
2023/06/13 03:54:08;;;;;;;9.45;4.85;;;;;;;;;;4997547;28;20047;-74
2023/06/13 03:56:35;;;;;;;10.07;5.00;;;;;;;;;;4996987;28;20056;-74
2023/06/13 03:59:01;;;;;;;12.73;4.82;;;;;;;;;;5009831;28;20057;-74
2023/06/13 04:01:28;;;;;;;8.73;5.20;;;;;;;;;;4997525;28;20050;-74
2023/06/13 04:03:54;;;;;;;8.98;4.65;;;;;;;;;;4996677;28;20054;-74
2023/06/13 04:06:20;;;;;;;9.45;4.68;;;;;;;;;;4997078;28;20050;-73
2023/06/13 04:08:47;;;;;;;9.88;5.13;;;;;;;;;;4997284;28;20495;-74
2023/06/13 04:11:13;;;;;;;9.93;4.90;;;;;;;;;;4999386;28;20050;-73
2023/06/13 04:13:41;;;;;;;10.60;4.80;;;;;;;;;;4998661;28;20077;-73
2023/06/13 04:16:07;;;;;;;10.18;4.47;;;;;;;;;;4995017;28;20127;-74
2023/06/13 04:18:36;;;;;;;12.93;4.97;;;;;;;;;;4997460;28;20046;-74
2023/06/13 04:21:03;;;;;;;10.82;4.75;;;;;;;;;;4996800;28;20121;-73
2023/06/13 04:23:30;;;;;;;11.93;5.07;;;;;;;;;;4996078;28;20042;-73
2023/06/13 04:25:57;;;;;;;10.52;4.65;;;;;;;;;;4995806;28;20050;-74
2023/06/13 04:28:25;;;;;;;10.25;5.07;;;;;;;;;;4996720;28;20042;-74
2023/06/13 04:30:51;;;;;;;10.48;4.93;;;;;;;;;;4995064;28;20102;-74
2023/06/13 04:33:18;;;;;;;11.25;5.50;;;;;;;;;;4994370;28;20073;-74
2023/06/13 04:35:44;;;;;;;9.68;4.90;;;;;;;;;;4991482;28;20046;-74
2023/06/13 04:38:21;;;;;;;10.68;5.38;;;;;;;;;;4994239;28;20050;-73
2023/06/13 04:40:47;;;;;;;10.15;5.68;;;;;;;;;;4993426;28;20054;-73
2023/06/13 04:43:17;;;;;;;10.95;5.60;;;;;;;;;;4988045;28;20073;-73
2023/06/13 04:45:43;;;;;;;9.50;5.50;;;;;;;;;;4996119;28;20046;-74
2023/06/13 04:48:10;;;;;;;11.68;5.53;;;;;;;;;;4995206;28;20074;-74
2023/06/13 04:50:37;;;;;;;10.02;5.20;;;;;;;;;;4998680;28;20085;-75
2023/06/13 04:53:07;;;;;;;10.82;5.30;;;;;;;;;;5002441;28;20118;-74
2023/06/13 04:55:35;;;;;;;13.57;5.32;;;;;;;;;;4996990;28;20051;-73
2023/06/13 04:58:01;;;;;;;9.13;5.45;;;;;;;;;;4996680;28;20057;-75
2023/06/13 05:00:27;;;;;;;8.65;5.28;;;;;;;;;;4995967;28;20042;-73
2023/06/13 05:02:55;;;;;;;8.75;5.10;;;;;;;;;;4992404;28;20038;-74
2023/06/13 05:05:22;;;;;;;11.20;5.32;;;;;;;;;;4990431;28;20631;-74
2023/06/13 05:07:49;;;;;;;10.73;5.05;;;;;;;;;;4995796;28;20094;-73
2023/06/13 05:10:15;;;;;;;9.70;5.38;;;;;;;;;;4997303;28;20038;-73
2023/06/13 05:12:41;;;;;;;9.60;5.13;;;;;;;;;;4995882;28;20038;-74
2023/06/13 05:15:07;;;;;;;10.25;5.70;;;;;;;;;;4996296;28;20045;-74
2023/06/13 05:17:34;;;;;;;12.07;5.53;;;;;;;;;;4996128;28;20046;-73
2023/06/13 05:20:00;;;;;;;10.20;5.07;;;;;;;;;;4996160;28;20050;-73
2023/06/13 05:22:26;;;;;;;11.25;5.00;;;;;;;;;;4996637;28;20043;-73
2023/06/13 05:24:52;;;;;;;10.70;5.40;;;;;;;;;;4984645;28;20409;-73
2023/06/13 05:27:18;;;;;;;9.93;5.03;;;;;;;;;;4978517;28;20055;-74
2023/06/13 05:29:44;;;;;;;10.25;5.35;;;;;;;;;;4969751;28;20046;-73
2023/06/13 05:32:10;;;;;;;10.15;5.60;;;;;;;;;;4997217;28;20058;-74
2023/06/13 05:34:37;;;;;;;9.30;4.68;;;;;;;;;;4996070;28;20058;-73
2023/06/13 05:37:10;;;;;;;12.05;5.28;;;;;;;;;;4995199;28;20447;-74
2023/06/13 05:39:36;;;;;;;13.90;5.40;;;;;;;;;;4994809;28;20116;-75
2023/06/13 05:42:02;;;;;;;11.13;5.03;;;;;;;;;;4996794;28;20093;-73
2023/06/13 05:44:28;;;;;;;10.93;5.47;;;;;;;;;;5000239;28;20074;-74
2023/06/13 05:46:54;;;;;;;8.73;5.30;;;;;;;;;;5000890;28;20389;-74
2023/06/13 05:49:20;;;;;;;10.27;4.78;;;;;;;;;;5003020;28;20042;-74
2023/06/13 05:51:46;;;;;;;11.00;5.25;;;;;;;;;;5001477;28;20457;-73
2023/06/13 05:54:12;;;;;;;9.88;5.10;;;;;;;;;;5001470;28;20038;-74
2023/06/13 05:56:38;;;;;;;7.53;5.00;;;;;;;;;;5002442;28;20055;-74
2023/06/13 05:59:05;;;;;;;13.60;4.82;;;;;;;;;;4991134;28;20058;-74
2023/06/13 06:01:33;;;;;;;8.70;4.57;;;;;;;;;;4995687;28;20580;-74
2023/06/13 06:03:59;;;;;;;10.05;4.88;;;;;;;;;;4998622;28;20046;-74
2023/06/13 06:06:25;;;;;;;7.72;4.30;;;;;;;;;;4996936;28;20121;-73
2023/06/13 06:08:51;;;;;;;8.10;4.30;;;;;;;;;;4998759;28;20121;-73
2023/06/13 06:11:18;;;;;;;9.57;4.60;;;;;;;;;;5000906;28;20038;-73
2023/06/13 06:13:43;;;;;;;11.32;4.55;;;;;;;;;;4998395;28;20046;-73
2023/06/13 06:16:10;;;;;;;9.75;4.30;;;;;;;;;;4997924;28;20074;-73
2023/06/13 06:18:37;;;;;;;9.25;4.40;;;;;;;;;;4979193;28;20047;-73
2023/06/13 06:21:03;;;;;;;10.98;4.25;;;;;;;;;;4982527;28;20074;-73
2023/06/13 06:23:29;;;;;;;8.70;4.10;;;;;;;;;;4997952;28;20058;-74
2023/06/13 06:25:55;;;;;;;9.20;4.00;;;;;;;;;;4996132;28;20061;-72
2023/06/13 06:28:21;;;;;;;8.82;4.60;;;;;;;;;;4999575;28;20047;-74
2023/06/13 06:30:48;;;;;;;7.60;4.28;;;;;;;;;;4999059;28;20099;-74
2023/06/13 06:33:15;;;;;;;9.57;3.90;;;;;;;;;;4996842;28;20455;-73
2023/06/13 06:35:41;;;;;;;9.27;4.10;;;;;;;;;;4996643;28;20124;-74
2023/06/13 06:38:07;;;;;;;8.25;4.10;;;;;;;;;;4999122;28;20053;-74
2023/06/13 06:40:33;;;;;;;10.25;3.97;;;;;;;;;;4988528;28;20074;-74
2023/06/13 06:42:59;;;;;;;7.95;4.28;;;;;;;;;;4978941;28;20051;-73
2023/06/13 06:45:25;;;;;;;8.95;3.38;;;;;;;;;;4992229;28;20136;-73
2023/06/13 06:47:51;;;;;;;8.05;3.55;;;;;;;;;;4993846;28;20054;-73
2023/06/13 06:50:17;;;;;;;7.72;3.60;;;;;;;;;;4995156;28;20065;-73
2023/06/13 06:52:43;;;;;;;7.00;3.38;;;;;;;;;;4993793;28;20463;-73
2023/06/13 06:55:10;;;;;;;8.82;3.38;;;;;;;;;;4994822;28;20136;-73
2023/06/13 06:57:36;;;;;;;7.80;3.20;;;;;;;;;;4995198;28;20043;-73
2023/06/13 07:00:03;;;;;;;8.45;3.08;;;;;;;;;;4995634;28;20054;-74
2023/06/13 07:02:30;;;;;;;7.20;3.28;;;;;;;;;;4993916;28;20536;-72
2023/06/13 07:04:56;;;;;;;9.85;3.53;;;;;;;;;;4992625;28;20038;-72
2023/06/13 07:07:22;;;;;;;6.95;2.95;;;;;;;;;;4993323;28;20488;-72
2023/06/13 07:09:48;;;;;;;6.93;3.17;;;;;;;;;;4993120;28;20050;-73
2023/06/13 07:12:14;;;;;;;6.97;3.00;;;;;;;;;;4995715;28;20181;-73
2023/06/13 07:14:40;;;;;;;7.57;3.30;;;;;;;;;;4991692;28;20126;-72
2023/06/13 07:17:06;;;;;;;6.60;3.08;;;;;;;;;;4986681;28;20125;-73
2023/06/13 07:19:32;;;;;;;8.73;3.38;;;;;;;;;;4994153;28;20053;-72
2023/06/13 07:21:59;;;;;;;10.52;3.72;;;;;;;;;;4995513;28;20049;-73
2023/06/13 07:24:25;;;;;;;8.00;3.45;;;;;;;;;;4995338;28;20046;-72
2023/06/13 07:26:51;;;;;;;5.70;3.00;;;;;;;;;;4991656;28;20050;-73
2023/06/13 07:29:17;;;;;;;6.65;3.38;;;;;;;;;;4992385;28;20046;-73
2023/06/13 07:31:43;;;;;;;6.47;3.55;;;;;;;;;;4995181;28;20678;-73
2023/06/13 07:34:09;;;;;;;6.90;3.15;;;;;;;;;;4993323;28;20054;-72
2023/06/13 07:36:37;;;;;;;7.07;3.45;;;;;;;;;;4994176;28;20096;-74
2023/06/13 07:39:13;;;;;;;10.15;3.30;;;;;;;;;;4993921;28;20062;-72
2023/06/13 07:41:39;;;;;;;7.70;3.30;;;;;;;;;;4977033;28;20081;-74
2023/06/13 07:44:06;;;;;;;5.80;2.92;;;;;;;;;;4984710;28;20039;-73
2023/06/13 07:46:32;;;;;;;9.30;3.50;;;;;;;;;;4982939;28;20043;-73
2023/06/13 07:48:58;;;;;;;8.65;3.15;;;;;;;;;;4980477;28;20405;-73
2023/06/13 07:51:24;;;;;;;7.15;3.50;;;;;;;;;;4986098;28;20042;-72
2023/06/13 07:53:50;;;;;;;10.15;3.35;;;;;;;;;;4988636;28;20137;-73
2023/06/13 07:56:17;;;;;;;10.20;3.20;;;;;;;;;;4990427;28;20047;-73
2023/06/13 07:58:43;;;;;;;6.97;3.17;;;;;;;;;;4993954;28;20049;-72
2023/06/13 08:01:10;;;;;;;8.82;3.20;;;;;;;;;;4991997;28;20046;-72
2023/06/13 08:03:36;;;;;;;8.88;3.83;;;;;;;;;;4989909;28;20046;-72
2023/06/13 08:06:02;;;;;;;7.35;2.97;;;;;;;;;;4991794;28;20042;-72
2023/06/13 08:08:28;;;;;;;6.50;3.13;;;;;;;;;;4989146;28;20269;-73
2023/06/13 08:10:54;;;;;;;8.98;3.15;;;;;;;;;;4966741;28;20042;-72
2023/06/13 08:13:20;;;;;;;7.95;2.90;;;;;;;;;;4990587;28;20442;-73
2023/06/13 08:15:46;;;;;;;6.72;2.88;;;;;;;;;;4990536;28;20046;-73
2023/06/13 08:18:13;;;;;;;7.80;3.17;;;;;;;;;;4986700;28;20050;-73
2023/06/13 08:20:39;;;;;;;9.70;3.00;;;;;;;;;;4973312;28;20086;-73
2023/06/13 08:23:05;;;;;;;6.40;3.00;;;;;;;;;;4994454;28;20054;-73
2023/06/13 08:25:31;;;;;;;7.65;2.97;;;;;;;;;;4994170;28;20121;-73
2023/06/13 08:27:57;;;;;;;9.30;3.55;;;;;;;;;;4994732;28;20054;-72
2023/06/13 08:30:24;;;;;;;9.98;3.28;;;;;;;;;;4994203;28;20106;-72
2023/06/13 08:32:52;;;;;;;7.50;3.10;;;;;;;;;;4993940;28;20049;-72
2023/06/13 08:35:21;;;;;;;8.50;3.25;;;;;;;;;;4994202;28;20077;-73
2023/06/13 08:37:47;;;;;;;6.38;2.70;;;;;;;;;;4991084;28;20129;-73
2023/06/13 08:40:16;;;;;;;9.10;2.70;;;;;;;;;;4992122;28;20038;-73
2023/06/13 08:42:43;;;;;;;9.90;2.90;;;;;;;;;;4995133;28;20050;-72
2023/06/13 08:45:09;;;;;;;7.13;2.95;;;;;;;;;;4995809;28;20076;-74
2023/06/13 08:47:36;;;;;;;7.40;2.80;;;;;;;;;;4999953;28;20056;-73
2023/06/13 08:50:02;;;;;;;6.35;2.95;;;;;;;;;;4998215;28;20125;-74
2023/06/13 08:52:30;;;;;;;9.52;3.10;;;;;;;;;;4995994;28;20082;-73
2023/06/13 08:54:58;;;;;;;7.00;3.50;;;;;;;;;;4995155;28;20062;-74
2023/06/13 08:57:25;;;;;;;9.07;3.10;;;;;;;;;;4994272;28;20125;-75
2023/06/13 08:59:53;;;;;;;8.38;2.92;;;;;;;;;;4996361;28;20064;-73
2023/06/13 09:02:24;;;;;;;10.10;3.10;;;;;;;;;;4998310;28;20097;-75
2023/06/13 09:04:51;;;;;;;8.00;2.95;;;;;;;;;;4996356;28;20108;-74
2023/06/13 09:07:18;;;;;;;5.82;3.05;;;;;;;;;;4994695;28;20134;-73
2023/06/13 09:09:45;;;;;;;11.80;3.17;;;;;;;;;;4995702;28;20146;-75
2023/06/13 09:12:12;;;;;;;8.57;2.90;;;;;;;;;;4996480;28;20054;-74
2023/06/13 09:14:39;;;;;;;8.13;2.80;;;;;;;;;;4997143;28;20050;-74
2023/06/13 09:17:05;;;;;;;7.50;3.10;;;;;;;;;;4997129;28;20050;-74
2023/06/13 09:19:32;;;;;;;5.28;2.90;;;;;;;;;;5000257;28;20047;-74
2023/06/13 09:21:58;;;;;;;9.98;3.20;;;;;;;;;;5002784;28;20038;-74
2023/06/13 09:24:25;;;;;;;9.65;3.35;;;;;;;;;;5001631;28;20043;-74
2023/06/13 09:26:51;;;;;;;5.47;2.92;;;;;;;;;;5000319;28;20441;-74
2023/06/13 09:29:17;;;;;;;6.10;2.85;;;;;;;;;;5003479;28;20427;-73
2023/06/13 09:31:43;;;;;;;9.23;3.08;;;;;;;;;;5002666;28;20125;-74
2023/06/13 09:34:14;;;;;;;7.00;2.72;;;;;;;;;;5002110;28;20397;-74
2023/06/13 09:36:40;;;;;;;10.10;3.20;;;;;;;;;;5000697;28;20042;-73
2023/06/13 09:39:07;;;;;;;6.20;3.05;;;;;;;;;;5001869;28;20055;-74
2023/06/13 09:41:34;;;;;;;9.27;3.10;;;;;;;;;;5002723;28;20130;-74
2023/06/13 09:44:04;;;;;;;11.38;3.00;;;;;;;;;;5002747;28;20057;-73
2023/06/13 09:46:34;;;;;;;10.63;3.28;;;;;;;;;;5001040;28;20057;-73
2023/06/13 09:49:01;;;;;;;8.07;2.90;;;;;;;;;;4999676;28;20384;-73
2023/06/13 09:51:32;;;;;;;8.00;2.90;;;;;;;;;;4999886;28;20408;-73
2023/06/13 09:53:57;;;;;;;;;;;;;;;;;;5002076;28;20054;-73
2023/06/13 09:56:24;;;;;;;8.57;3.00;;;;;;;;;;5000874;28;19922;-75
2023/06/13 09:58:51;;;;;;;9.30;3.08;;;;;;;;;;4999828;28;20046;-73
2023/06/13 10:01:18;;;;;;;6.50;3.45;;;;;;;;;;4998301;28;20053;-78
2023/06/13 10:03:45;;;;;;;7.20;3.25;;;;;;;;;;5001498;28;20058;-74
2023/06/13 10:06:11;;;;;;;7.20;2.97;;;;;;;;;;5002039;28;20118;-74
2023/06/13 10:08:37;;;;;;;5.55;3.55;;;;;;;;;;5000835;28;20098;-74
2023/06/13 10:11:08;;;;;;;6.90;3.15;;;;;;;;;;4999933;28;20507;-74
2023/06/13 10:13:37;;;;;;;8.15;3.53;;;;;;;;;;5000145;28;20046;-74
2023/06/13 10:16:05;;;;;;;7.85;3.35;;;;;;;;;;4999948;28;20051;-74
2023/06/13 10:18:37;;;;;;;9.02;3.30;;;;;;;;;;4999794;28;20377;-74
2023/06/13 10:21:03;;;;;;;8.55;3.50;;;;;;;;;;5000274;28;20508;-74
2023/06/13 10:23:31;;;;;;;6.80;3.30;;;;;;;;;;5000987;28;20489;-74
2023/06/13 10:26:00;;;;;;;7.13;3.20;;;;;;;;;;5000401;28;20085;-74
2023/06/13 10:28:45;;;;;;;8.82;3.58;;;;;;;;;;4996648;28;20470;-74
2023/06/13 10:31:28;;;;;;;6.80;3.40;;;;;;;;;;4998159;28;20097;-74
2023/06/13 10:34:05;;;;;;;10.82;3.70;;;;;;;;;;4979909;28;20527;-73
2023/06/13 10:37:03;;;;;;;8.45;3.28;;;;;;;;;;4998826;28;20050;-74
2023/06/13 10:39:29;;;;;;;7.13;3.80;;;;;;;;;;4998818;28;20066;-74
2023/06/13 10:42:02;;;;;;;7.63;3.22;;;;;;;;;;4998675;28;20050;-74
2023/06/13 10:44:32;;;;;;;6.25;3.13;;;;;;;;;;4998438;28;20058;-74
2023/06/13 10:46:59;;;;;;;7.40;3.10;;;;;;;;;;4999146;28;20083;-74
2023/06/13 10:49:36;;;;;;;9.00;3.13;;;;;;;;;;4998655;28;20131;-74
2023/06/13 10:52:02;;;;;;;7.80;3.58;;;;;;;;;;4997338;28;20050;-73
2023/06/13 10:54:28;;;;;;;5.55;3.50;;;;;;;;;;4998199;28;20082;-74
2023/06/13 10:57:00;;;;;;;9.55;3.85;;;;;;;;;;5000401;28;20054;-73
2023/06/13 10:59:30;;;;;;;11.20;3.90;;;;;;;;;;5001350;28;20078;-73
2023/06/13 11:01:56;;;;;;;7.55;3.42;;;;;;;;;;5000455;28;20051;-74
2023/06/13 11:04:22;;;;;;;11.70;3.65;;;;;;;;;;4999983;28;20058;-74
2023/06/13 11:06:51;;;;;;;9.02;3.47;;;;;;;;;;5000544;28;20061;-74
2023/06/13 11:09:22;;;;;;;7.15;3.88;;;;;;;;;;4999087;28;20046;-74
2023/06/13 11:11:51;;;;;;;9.32;3.63;;;;;;;;;;4998442;28;20513;-73
2023/06/13 11:14:21;;;;;;;7.07;3.33;;;;;;;;;;4999093;28;20100;-74
2023/06/13 11:16:47;;;;;;;8.93;3.70;;;;;;;;;;4997796;28;20051;-74
2023/06/13 11:19:14;;;;;;;8.25;3.70;;;;;;;;;;4997987;28;20046;-74
2023/06/13 11:21:44;;;;;;;7.57;3.90;;;;;;;;;;5001107;28;20046;-74
2023/06/13 11:24:14;;;;;;;9.38;3.83;;;;;;;;;;4998766;28;20129;-74
2023/06/13 11:26:41;;;;;;;7.90;4.00;;;;;;;;;;4997104;28;20373;-74
2023/06/13 11:29:07;;;;;;;7.63;3.45;;;;;;;;;;4999543;28;20488;-75
2023/06/13 11:31:34;;;;;;;8.10;3.55;;;;;;;;;;4996898;28;20057;-73
2023/06/13 11:34:01;;;;;;;7.75;3.30;;;;;;;;;;4992761;28;20046;-74
2023/06/13 11:36:28;;;;;;;8.55;3.58;;;;;;;;;;4997902;28;20049;-74
2023/06/13 11:39:09;;;;;;;8.93;3.88;;;;;;;;;;4998346;28;20085;-74
2023/06/13 11:41:36;;;;;;;6.80;3.13;;;;;;;;;;4998179;28;20054;-74
2023/06/13 11:44:02;;;;;;;9.27;4.00;;;;;;;;;;4997646;28;20126;-75
2023/06/13 11:46:29;;;;;;;13.82;3.88;;;;;;;;;;4997148;28;20051;-74
2023/06/13 11:48:55;;;;;;;5.40;3.53;;;;;;;;;;4997611;28;20104;-73
2023/06/13 11:51:21;;;;;;;8.75;3.58;;;;;;;;;;4997215;28;20085;-74
2023/06/13 11:53:48;;;;;;;7.65;3.50;;;;;;;;;;4998180;28;20477;-74
2023/06/13 11:56:20;;;;;;;6.70;3.50;;;;;;;;;;4980641;28;20174;-75
2023/06/13 11:58:47;;;;;;;7.47;3.67;;;;;;;;;;4998714;28;20049;-73
2023/06/13 12:01:15;;;;;;;18.95;4.60;;;;;;;;;;4995711;28;20050;-74
2023/06/13 12:03:42;;;;;;;5.80;3.25;;;;;;;;;;4997959;28;20050;-74
2023/06/13 12:06:08;;;;;;;6.53;3.70;;;;;;;;;;4999113;28;20046;-74
2023/06/13 12:08:35;;;;;;;7.57;3.85;;;;;;;;;;4997802;28;20466;-73
2023/06/13 12:11:05;;;;;;;6.28;3.50;;;;;;;;;;4997113;28;20543;-73
2023/06/13 12:13:35;;;;;;;10.57;3.83;;;;;;;;;;4997049;28;20053;-74
2023/06/13 12:16:01;;;;;;;10.53;3.83;;;;;;;;;;4996884;28;20108;-75
2023/06/13 12:18:30;;;;;;;10.18;4.32;;;;;;;;;;4997908;28;20042;-74
2023/06/13 12:20:59;;;;;;;8.60;3.90;;;;;;;;;;4996770;28;20051;-72
2023/06/13 12:23:26;;;;;;;9.82;3.63;;;;;;;;;;4998430;28;20405;-74
2023/06/13 12:25:53;;;;;;;7.13;3.42;;;;;;;;;;4995659;28;20133;-74
2023/06/13 12:28:19;;;;;;;7.03;3.22;;;;;;;;;;4997400;28;20058;-73
2023/06/13 12:30:49;;;;;;;6.93;3.70;;;;;;;;;;4994356;28;20042;-72
2023/06/13 12:33:17;;;;;;;7.07;3.20;;;;;;;;;;4991358;28;20050;-73
2023/06/13 12:35:57;;;;;;;7.95;3.47;;;;;;;;;;4993421;28;20054;-73
2023/06/13 12:38:28;;;;;;;7.30;3.45;;;;;;;;;;4991739;28;20065;-73
2023/06/13 12:40:54;;;;;;;8.05;3.30;;;;;;;;;;4989357;28;20517;-72
2023/06/13 12:43:41;;;;;;;11.10;3.92;;;;;;;;;;4985647;28;20050;-74
2023/06/13 12:46:07;;;;;;;6.07;3.35;;;;;;;;;;4977811;28;20171;-72
2023/06/13 12:48:37;;;;;;;8.48;3.58;;;;;;;;;;4994276;28;20050;-74
2023/06/13 12:51:03;;;;;;;7.00;3.45;;;;;;;;;;4985072;28;20185;-74
2023/06/13 12:53:31;;;;;;;8.90;3.30;;;;;;;;;;4984045;28;20054;-74
2023/06/13 12:56:00;;;;;;;7.28;3.30;;;;;;;;;;4979136;28;20070;-74
2023/06/13 12:58:39;;;;;;;6.85;3.35;;;;;;;;;;4993406;28;20445;-74
2023/06/13 13:01:06;;;;;;;9.98;3.40;;;;;;;;;;4997294;28;20061;-74
2023/06/13 13:03:32;;;;;;;10.18;3.45;;;;;;;;;;4997845;28;20054;-75
2023/06/13 13:06:02;;;;;;;9.25;3.88;;;;;;;;;;4997443;28;20061;-75
2023/06/13 13:08:28;;;;;;;7.57;3.35;;;;;;;;;;4994713;28;20097;-74
2023/06/13 13:10:55;;;;;;;8.60;3.30;;;;;;;;;;4998943;28;20038;-74
2023/06/13 13:13:22;;;;;;;8.68;3.40;;;;;;;;;;4998967;28;20062;-75
2023/06/13 13:15:48;;;;;;;7.15;3.47;;;;;;;;;;4999346;28;20046;-74
2023/06/13 13:18:16;;;;;;;7.20;3.03;;;;;;;;;;4997014;28;20065;-74
2023/06/13 13:20:42;;;;;;;6.60;3.45;;;;;;;;;;4994582;28;20049;-74
2023/06/13 13:23:08;;;;;;;7.25;3.30;;;;;;;;;;4994018;28;20039;-74
2023/06/13 13:25:35;;;;;;;6.22;3.65;;;;;;;;;;4996214;28;20118;-75
2023/06/13 13:28:01;;;;;;;7.72;3.38;;;;;;;;;;4997602;28;20078;-75
2023/06/13 13:30:28;;;;;;;6.43;3.22;;;;;;;;;;4997216;28;20104;-74
2023/06/13 13:32:55;;;;;;;12.88;3.35;;;;;;;;;;4995407;28;20077;-74
2023/06/13 13:35:21;;;;;;;5.15;3.17;;;;;;;;;;4995481;28;20093;-75
2023/06/13 13:37:51;;;;;;;8.30;3.08;;;;;;;;;;4993672;28;20513;-74
2023/06/13 13:40:17;;;;;;;8.20;3.20;;;;;;;;;;4995410;28;20058;-75
2023/06/13 13:42:43;;;;;;;10.05;3.00;;;;;;;;;;4993830;28;20055;-73
2023/06/13 13:45:09;;;;;;;6.45;3.10;;;;;;;;;;4997171;28;20057;-74
2023/06/13 13:47:36;;;;;;;10.93;3.38;;;;;;;;;;4996176;28;20042;-75
2023/06/13 13:50:03;;;;;;;6.28;2.92;;;;;;;;;;4996463;28;20046;-73
2023/06/13 13:52:29;;;;;;;10.98;3.63;;;;;;;;;;4997399;28;20050;-74
2023/06/13 13:54:55;;;;;;;7.32;3.30;;;;;;;;;;4998217;28;20093;-74
2023/06/13 13:57:21;;;;;;;6.97;3.70;;;;;;;;;;5000675;28;20074;-73
2023/06/13 13:59:49;;;;;;;8.35;3.30;;;;;;;;;;4983176;28;20104;-74
2023/06/13 14:02:15;;;;;;;8.40;3.17;;;;;;;;;;4997861;28;20041;-74
2023/06/13 14:04:41;;;;;;;8.23;3.33;;;;;;;;;;5002005;28;20038;-75
2023/06/13 14:07:07;;;;;;;7.50;3.10;;;;;;;;;;5002249;28;20058;-74
2023/06/13 14:09:33;;;;;;;7.45;3.20;;;;;;;;;;4974175;28;20034;-73
2023/06/13 14:12:00;;;;;;;7.30;3.10;;;;;;;;;;4997624;28;20048;-74
2023/06/13 14:14:26;;;;;;;7.38;2.50;;;;;;;;;;5001245;28;20050;-74
2023/06/13 14:16:53;;;;;;;8.02;3.22;;;;;;;;;;4999981;28;20050;-73
2023/06/13 14:19:19;;;;;;;8.52;3.22;;;;;;;;;;4992388;28;20046;-75
2023/06/13 14:21:45;;;;;;;5.15;2.80;;;;;;;;;;4999173;28;20407;-76
2023/06/13 14:24:11;;;;;;;7.65;3.08;;;;;;;;;;4991712;28;20070;-74
2023/06/13 14:26:37;;;;;;;5.28;3.00;;;;;;;;;;4988339;28;20389;-73
2023/06/13 14:29:03;;;;;;;6.85;3.22;;;;;;;;;;4996683;28;20046;-74
2023/06/13 14:31:30;;;;;;;7.70;3.25;;;;;;;;;;4988867;28;20105;-74
2023/06/13 14:33:56;;;;;;;8.43;3.22;;;;;;;;;;4989287;28;20035;-73
2023/06/13 14:36:23;;;;;;;8.55;3.25;;;;;;;;;;4990106;28;20069;-74
2023/06/13 14:38:49;;;;;;;7.93;3.38;;;;;;;;;;4988305;28;20504;-73